createdAt,value
2024-04-30T00:01:34.044Z,2.20
2024-04-30T00:04:00.924Z,4.83
2024-04-30T00:06:32.863Z,2.57
2024-04-30T00:08:59.490Z,4.63
2024-04-30T00:11:28.753Z,3.70
2024-04-30T00:13:55.448Z,2.87
2024-04-30T00:16:24.749Z,2.53
2024-04-30T00:18:51.392Z,2.80
2024-04-30T00:21:20.622Z,2.80
2024-04-30T00:23:49.866Z,2.63
2024-04-30T00:26:19.099Z,2.80
2024-04-30T00:28:46.947Z,3.10
2024-04-30T00:31:16.201Z,2.60
2024-04-30T00:33:42.837Z,2.47
2024-04-30T00:36:12.102Z,3.03
2024-04-30T00:38:38.728Z,4.87
2024-04-30T00:41:10.504Z,2.33
2024-04-30T00:43:37.355Z,2.60
2024-04-30T00:46:07.169Z,2.10
2024-04-30T00:48:36.441Z,1.60
2024-04-30T00:51:09.361Z,4.03
2024-04-30T00:53:36.105Z,2.90
2024-04-30T00:56:05.609Z,2.37
2024-04-30T00:58:36.157Z,3.20
2024-04-30T01:01:06.625Z,4.70
2024-04-30T01:03:33.638Z,3.67
2024-04-30T01:06:03.014Z,3.13
2024-04-30T01:08:29.678Z,3.67
2024-04-30T01:11:00.191Z,3.30
2024-04-30T01:13:28.802Z,3.53
2024-04-30T01:16:00.700Z,3.90
2024-04-30T01:18:27.381Z,3.73
2024-04-30T01:20:56.638Z,3.03
2024-04-30T01:23:25.897Z,2.40
2024-04-30T01:25:55.246Z,3.37
2024-04-30T01:28:21.965Z,2.87
2024-04-30T01:30:51.396Z,2.77
2024-04-30T01:33:18.616Z,4.03
2024-04-30T01:35:47.812Z,2.90
2024-04-30T01:38:14.621Z,5.30
2024-04-30T01:40:46.437Z,2.07
2024-04-30T01:43:13.114Z,3.23
2024-04-30T01:45:42.368Z,5.13
2024-04-30T01:48:09.077Z,3.47
2024-04-30T01:50:39.181Z,3.10
2024-04-30T01:53:05.831Z,5.50
2024-04-30T01:55:35.093Z,2.97
2024-04-30T01:58:04.738Z,5.40
2024-04-30T02:00:34.085Z,3.10
2024-04-30T02:03:00.734Z,2.60
2024-04-30T02:05:30.045Z,2.60
2024-04-30T02:07:56.768Z,3.30
2024-04-30T02:10:26.061Z,4.70
2024-04-30T02:12:52.700Z,4.60
2024-04-30T02:15:24.511Z,2.57
2024-04-30T02:17:51.585Z,2.67
2024-04-30T02:20:20.803Z,3.93
2024-04-30T02:22:47.456Z,3.70
2024-04-30T02:25:16.768Z,3.40
2024-04-30T02:27:43.487Z,2.80
2024-04-30T02:30:33.471Z,5.47
2024-04-30T02:33:21.212Z,6.77
2024-04-30T02:35:50.500Z,2.70
2024-04-30T02:38:19.705Z,4.50
2024-04-30T02:40:48.928Z,4.50
2024-04-30T02:43:18.201Z,6.63
2024-04-30T02:45:44.857Z,6.40
2024-04-30T02:48:17.559Z,3.53
2024-04-30T02:50:44.219Z,3.13
2024-04-30T02:53:13.475Z,4.00
2024-04-30T02:55:40.160Z,3.93
2024-04-30T02:58:09.382Z,2.77
2024-04-30T03:00:38.608Z,4.43
2024-04-30T03:03:05.506Z,4.50
2024-04-30T03:05:37.341Z,4.00
2024-04-30T03:08:05.374Z,3.47
2024-04-30T03:10:35.028Z,3.00
2024-04-30T03:13:01.847Z,6.03
2024-04-30T03:15:31.086Z,3.17
2024-04-30T03:17:57.919Z,3.60
2024-04-30T03:20:27.530Z,2.70
2024-04-30T03:22:56.764Z,4.80
2024-04-30T03:25:26.007Z,2.40
2024-04-30T03:27:52.719Z,2.63
2024-04-30T03:30:22.144Z,5.87
2024-04-30T03:32:49.065Z,5.00
2024-04-30T03:35:18.946Z,2.87
2024-04-30T03:37:48.203Z,5.57
2024-04-30T03:40:20.041Z,3.33
2024-04-30T03:42:52.284Z,5.30
2024-04-30T03:45:22.982Z,5.10
2024-04-30T03:47:52.235Z,3.60
2024-04-30T03:50:21.473Z,4.43
2024-04-30T03:52:48.098Z,6.83
2024-04-30T03:55:19.962Z,2.90
2024-04-30T03:57:46.582Z,3.00
2024-04-30T04:00:16.402Z,3.27
2024-04-30T04:02:43.163Z,2.87
2024-04-30T04:05:12.427Z,3.13
2024-04-30T04:07:39.096Z,4.37
2024-04-30T04:10:09.160Z,3.13
2024-04-30T04:12:57.039Z,4.53
2024-04-30T04:15:26.232Z,3.67
2024-04-30T04:17:55.521Z,5.00
2024-04-30T04:20:24.759Z,5.77
2024-04-30T04:22:53.983Z,4.43
2024-04-30T04:25:23.190Z,4.67
2024-04-30T04:27:52.464Z,6.87
2024-04-30T04:30:21.638Z,5.03
2024-04-30T04:32:48.391Z,6.37
2024-04-30T04:35:17.927Z,4.90
2024-04-30T04:37:45.834Z,5.23
2024-04-30T04:40:15.207Z,3.93
2024-04-30T04:42:41.855Z,3.93
2024-04-30T04:45:13.657Z,3.93
2024-04-30T04:47:40.386Z,4.57
2024-04-30T04:50:10.740Z,5.03
2024-04-30T04:52:38.585Z,3.90
2024-04-30T04:55:08.336Z,6.90
2024-04-30T04:57:35.016Z,7.73
2024-04-30T05:00:05.551Z,6.73
2024-04-30T05:02:34.802Z,7.53
2024-04-30T05:05:04.108Z,7.73
2024-04-30T05:07:31.055Z,4.30
2024-04-30T05:10:00.425Z,5.93
2024-04-30T05:12:27.076Z,6.30
2024-04-30T05:14:56.394Z,6.80
2024-04-30T05:17:23.174Z,3.40
2024-04-30T05:19:55.049Z,5.73
2024-04-30T05:22:21.776Z,4.77
2024-04-30T05:24:51.094Z,8.03
2024-04-30T05:27:17.784Z,6.60
2024-04-30T05:29:47.085Z,4.97
2024-04-30T05:32:13.748Z,5.60
2024-04-30T05:34:42.993Z,6.83
2024-04-30T05:37:12.362Z,5.30
2024-04-30T05:39:41.595Z,4.30
2024-04-30T05:42:09.170Z,5.57
2024-04-30T05:44:38.392Z,4.97
2024-04-30T05:47:05.156Z,5.77
2024-04-30T05:49:34.717Z,5.23
2024-04-30T05:52:01.656Z,6.03
2024-04-30T05:54:33.441Z,6.03
2024-04-30T05:57:00.132Z,6.30
2024-04-30T05:59:29.796Z,6.77
2024-04-30T06:01:56.520Z,5.93
2024-04-30T06:04:25.934Z,7.40
2024-04-30T06:06:52.621Z,5.87
2024-04-30T06:09:21.842Z,6.50
2024-04-30T06:11:52.859Z,7.97
2024-04-30T06:14:23.962Z,7.50
2024-04-30T06:16:51.855Z,7.63
2024-04-30T06:19:21.105Z,9.23
2024-04-30T06:21:47.965Z,8.23
2024-04-30T06:24:17.230Z,7.27
2024-04-30T06:26:44.287Z,10.67
2024-04-30T06:29:17.102Z,8.23
2024-04-30T06:31:43.844Z,5.60
2024-04-30T06:34:14.432Z,7.40
2024-04-30T06:36:41.105Z,7.00
2024-04-30T06:39:10.348Z,8.30
2024-04-30T06:41:37.005Z,7.40
2024-04-30T06:44:06.253Z,7.90
2024-04-30T06:46:35.591Z,5.53
2024-04-30T06:49:05.821Z,10.97
2024-04-30T06:51:34.582Z,8.17
2024-04-30T06:54:03.822Z,8.50
2024-04-30T06:56:30.465Z,5.50
2024-04-30T06:58:59.648Z,5.07
2024-04-30T07:01:28.967Z,10.30
2024-04-30T07:03:58.225Z,9.43
2024-04-30T07:06:27.457Z,7.53
2024-04-30T07:08:54.080Z,6.40
2024-04-30T07:11:23.536Z,6.03
2024-04-30T07:13:50.212Z,5.82
2024-04-30T07:16:19.551Z,7.07
2024-04-30T07:18:46.789Z,8.50
2024-04-30T07:21:18.690Z,8.15
2024-04-30T07:23:45.358Z,8.63
2024-04-30T07:26:16.693Z,6.35
2024-04-30T07:28:44.954Z,8.30
2024-04-30T07:31:14.176Z,9.23
2024-04-30T07:33:42.777Z,8.18
2024-04-30T07:36:12.134Z,9.70
2024-04-30T07:38:41.367Z,9.35
2024-04-30T07:41:10.850Z,11.77
2024-04-30T07:43:37.751Z,9.88
2024-04-30T07:46:07.539Z,8.90
2024-04-30T07:48:34.316Z,5.15
2024-04-30T07:51:03.666Z,5.93
2024-04-30T07:53:30.325Z,7.32
2024-04-30T07:56:02.136Z,5.97
2024-04-30T07:58:28.894Z,7.13
2024-04-30T08:00:58.136Z,7.03
2024-04-30T08:03:24.800Z,4.88
2024-04-30T08:05:56.329Z,5.93
2024-04-30T08:08:24.981Z,6.38
2024-04-30T08:10:54.882Z,7.25
2024-04-30T08:13:24.147Z,3.85
2024-04-30T08:15:53.376Z,5.13
2024-04-30T08:18:20.060Z,5.22
2024-04-30T08:20:49.297Z,8.98
2024-04-30T08:23:15.953Z,5.68
2024-04-30T08:25:45.218Z,5.20
2024-04-30T08:28:11.956Z,4.10
2024-04-30T08:30:44.387Z,5.88
2024-04-30T08:33:11.598Z,6.10
2024-04-30T08:35:42.304Z,4.65
2024-04-30T08:38:09.207Z,5.32
2024-04-30T08:40:38.806Z,5.60
2024-04-30T08:43:05.671Z,4.18
2024-04-30T08:45:36.985Z,6.75
2024-04-30T08:48:07.846Z,5.00
2024-04-30T08:50:41.377Z,5.15
2024-04-30T08:53:09.971Z,5.53
2024-04-30T08:55:40.436Z,6.10
2024-04-30T08:58:07.231Z,3.97
2024-04-30T09:00:37.387Z,5.32
2024-04-30T09:03:07.463Z,7.13
2024-04-30T09:05:37.097Z,4.93
2024-04-30T09:08:04.841Z,4.72
2024-04-30T09:10:35.989Z,4.32
2024-04-30T09:13:05.342Z,6.75
2024-04-30T09:15:32.018Z,4.68
2024-04-30T09:18:11.266Z,6.28
2024-04-30T09:20:44.458Z,6.82
2024-04-30T09:23:13.661Z,6.47
2024-04-30T09:25:43.011Z,5.45
2024-04-30T09:28:13.446Z,6.85
2024-04-30T09:30:42.716Z,6.05
2024-04-30T09:33:12.443Z,8.82
2024-04-30T09:35:42.175Z,5.60
2024-04-30T09:38:11.602Z,5.63
2024-04-30T09:40:41.002Z,5.32
2024-04-30T09:43:08.122Z,5.38
2024-04-30T09:45:37.422Z,7.20
2024-04-30T09:48:09.499Z,4.88
2024-04-30T09:50:43.520Z,4.18
2024-04-30T09:53:11.929Z,4.57
2024-04-30T09:55:41.167Z,3.95
2024-04-30T09:58:10.284Z,8.65
2024-04-30T10:00:39.493Z,12.73
2024-04-30T10:03:09.346Z,4.47
2024-04-30T10:05:45.870Z,4.40
2024-04-30T10:08:15.259Z,6.18
2024-04-30T10:10:45.845Z,3.83
2024-04-30T10:13:19.318Z,3.47
2024-04-30T10:15:46.049Z,7.07
2024-04-30T10:18:23.928Z,4.88
2024-04-30T10:20:53.451Z,7.95
2024-04-30T10:23:30.371Z,4.93
2024-04-30T10:26:04.400Z,7.63
2024-04-30T10:28:33.845Z,5.15
2024-04-30T10:31:10.941Z,5.38
2024-04-30T10:33:40.949Z,4.80
2024-04-30T10:36:12.260Z,4.47
2024-04-30T10:38:42.957Z,4.60
2024-04-30T10:41:10.592Z,3.80
2024-04-30T10:43:40.078Z,5.18
2024-04-30T10:46:12.495Z,5.72
2024-04-30T10:48:49.603Z,3.50
2024-04-30T10:51:20.872Z,10.20
2024-04-30T10:53:51.725Z,6.55
2024-04-30T10:56:18.938Z,3.53
2024-04-30T10:58:55.365Z,4.10
2024-04-30T11:01:23.272Z,4.07
2024-04-30T11:03:53.362Z,3.72
2024-04-30T11:06:25.204Z,4.20
2024-04-30T11:08:51.915Z,7.00
2024-04-30T11:11:43.137Z,4.30
2024-04-30T11:14:09.809Z,6.97
2024-04-30T11:16:39.711Z,6.00
2024-04-30T11:19:06.449Z,3.78
2024-04-30T11:21:38.337Z,4.45
2024-04-30T11:24:06.148Z,3.30
2024-04-30T11:26:35.364Z,3.40
2024-04-30T11:29:15.924Z,6.85
2024-04-30T11:31:51.415Z,8.63
2024-04-30T11:34:18.106Z,4.63
2024-04-30T11:36:50.036Z,5.70
2024-04-30T11:39:16.882Z,5.10
2024-04-30T11:41:51.923Z,3.35
2024-04-30T11:44:23.881Z,3.42
2024-04-30T11:46:53.113Z,7.10
2024-04-30T11:49:19.869Z,4.63
2024-04-30T11:51:51.697Z,4.53
2024-04-30T11:54:18.362Z,2.70
2024-04-30T11:56:47.616Z,5.28
2024-04-30T11:59:14.300Z,4.25
2024-04-30T12:01:43.740Z,3.83
2024-04-30T12:04:10.446Z,7.00
2024-04-30T12:06:40.128Z,3.80
2024-04-30T12:09:09.408Z,3.80
2024-04-30T12:11:41.065Z,4.03
2024-04-30T12:14:07.725Z,4.07
2024-04-30T12:16:37.000Z,3.55
2024-04-30T12:19:05.117Z,5.03
2024-04-30T12:21:34.410Z,3.75
2024-04-30T12:24:01.121Z,6.47
2024-04-30T12:26:37.565Z,2.85
2024-04-30T12:29:04.374Z,2.95
2024-04-30T12:31:34.278Z,3.38
2024-04-30T12:34:00.963Z,2.15
2024-04-30T12:36:32.578Z,2.15
2024-04-30T12:39:02.000Z,4.07
2024-04-30T12:41:37.150Z,5.63
2024-04-30T12:44:06.568Z,2.78
2024-04-30T12:46:33.407Z,3.53
2024-04-30T12:49:02.946Z,2.67
2024-04-30T12:51:29.706Z,3.72
2024-04-30T12:53:59.607Z,5.20
2024-04-30T12:56:26.323Z,3.80
2024-04-30T12:58:58.173Z,3.92
2024-04-30T13:01:26.333Z,3.25
2024-04-30T13:03:55.930Z,3.05
2024-04-30T13:06:22.629Z,2.63
2024-04-30T13:08:52.051Z,4.85
2024-04-30T13:11:18.761Z,2.35
2024-04-30T13:13:48.019Z,4.85
2024-04-30T13:16:17.287Z,4.47
2024-04-30T13:18:46.628Z,4.93
2024-04-30T13:21:14.848Z,5.07
2024-04-30T13:23:44.253Z,2.75
2024-04-30T13:26:11.050Z,2.92
2024-04-30T13:28:40.323Z,2.60
2024-04-30T13:31:07.165Z,2.65
2024-04-30T13:33:39.787Z,2.00
2024-04-30T13:36:09.966Z,3.67
2024-04-30T13:38:39.181Z,2.67
2024-04-30T13:41:05.864Z,4.63
2024-04-30T13:43:39.389Z,4.47
2024-04-30T13:46:06.286Z,4.18
2024-04-30T13:48:35.618Z,2.67
2024-04-30T13:51:05.457Z,3.55
2024-04-30T13:53:34.771Z,3.10
2024-04-30T13:56:01.408Z,2.50
2024-04-30T13:58:30.740Z,2.90
2024-04-30T14:00:57.483Z,2.20
2024-04-30T14:03:26.786Z,2.42
2024-04-30T14:05:55.151Z,2.13
2024-04-30T14:08:27.658Z,5.93
2024-04-30T14:10:54.508Z,3.30
2024-04-30T14:13:23.850Z,4.80
2024-04-30T14:15:50.572Z,2.67
2024-04-30T14:18:19.811Z,5.25
2024-04-30T14:20:46.724Z,3.03
2024-04-30T14:23:15.960Z,4.95
2024-04-30T14:25:45.291Z,4.55
2024-04-30T14:28:14.650Z,4.25
2024-04-30T14:30:41.529Z,4.15
2024-04-30T14:33:10.837Z,2.30
2024-04-30T14:35:52.507Z,5.43
2024-04-30T14:38:21.796Z,3.95
2024-04-30T14:40:51.404Z,3.53
2024-04-30T14:43:20.691Z,2.38
2024-04-30T14:45:47.335Z,2.65
2024-04-30T14:48:17.187Z,5.30
2024-04-30T14:50:43.969Z,6.05
2024-04-30T14:53:13.170Z,4.68
2024-04-30T14:55:40.131Z,4.60
2024-04-30T14:58:11.990Z,4.57
2024-04-30T15:00:38.661Z,3.38
2024-04-30T15:03:08.441Z,2.97
2024-04-30T15:05:35.173Z,4.00
2024-04-30T15:08:04.414Z,3.78
2024-04-30T15:10:31.462Z,4.82
2024-04-30T15:13:00.838Z,5.53
2024-04-30T15:15:30.076Z,3.58
2024-04-30T15:17:59.445Z,3.83
2024-04-30T15:20:26.153Z,4.75
2024-04-30T15:22:55.771Z,4.20
2024-04-30T15:25:25.115Z,3.28
2024-04-30T15:27:51.845Z,3.15
2024-04-30T15:30:21.173Z,2.90
2024-04-30T15:32:51.703Z,5.68
2024-04-30T15:35:22.361Z,5.80
2024-04-30T15:37:49.093Z,6.60
2024-04-30T15:40:18.506Z,4.60
2024-04-30T15:42:45.267Z,2.60
2024-04-30T15:45:14.637Z,7.78
2024-04-30T15:47:42.848Z,4.43
2024-04-30T15:50:14.744Z,3.80
2024-04-30T15:52:41.516Z,3.38
2024-04-30T15:55:10.834Z,4.70
2024-04-30T15:57:37.749Z,5.60
2024-04-30T16:00:07.898Z,5.63
2024-04-30T16:02:34.919Z,3.70
2024-04-30T16:05:04.326Z,2.75
2024-04-30T16:07:34.063Z,4.00
2024-04-30T16:10:03.267Z,4.35
2024-04-30T16:12:30.424Z,5.85
2024-04-30T16:14:59.633Z,3.13
2024-04-30T16:17:26.630Z,5.38
2024-04-30T16:19:56.046Z,3.30
2024-04-30T16:22:22.949Z,3.10
2024-04-30T16:24:55.665Z,2.40
2024-04-30T16:27:22.528Z,5.25
2024-04-30T16:29:51.721Z,5.22
2024-04-30T16:32:18.857Z,3.63
2024-04-30T16:34:48.189Z,5.35
2024-04-30T16:37:14.836Z,5.78
2024-04-30T16:39:44.060Z,3.88
2024-04-30T16:42:15.881Z,3.38
2024-04-30T16:44:48.611Z,3.55
2024-04-30T16:47:19.540Z,4.22
2024-04-30T16:49:48.821Z,4.82
2024-04-30T16:52:15.445Z,4.53
2024-04-30T16:54:44.706Z,2.95
2024-04-30T16:57:14.028Z,2.70
2024-04-30T16:59:43.249Z,4.20
2024-04-30T17:02:12.136Z,4.15
2024-04-30T17:04:41.844Z,4.28
2024-04-30T17:07:08.513Z,8.18
2024-04-30T17:09:37.749Z,3.78
2024-04-30T17:12:07.720Z,4.63
2024-04-30T17:14:37.218Z,6.13
2024-04-30T17:17:07.334Z,6.97
2024-04-30T17:19:34.099Z,4.57
2024-04-30T17:22:03.380Z,11.25
2024-04-30T17:24:30.050Z,6.68
2024-04-30T17:26:59.690Z,6.82
2024-04-30T17:29:26.327Z,8.68
2024-04-30T17:31:58.433Z,7.13
2024-04-30T17:34:25.127Z,6.28
2024-04-30T17:36:54.408Z,22.73
2024-04-30T17:39:21.248Z,5.05
2024-04-30T17:41:50.593Z,5.40
2024-04-30T17:44:17.302Z,5.05
2024-04-30T17:46:46.533Z,6.63
2024-04-30T17:49:15.871Z,5.38
2024-04-30T17:51:45.629Z,6.80
2024-04-30T17:54:14.634Z,6.05
2024-04-30T17:56:43.824Z,8.82
2024-04-30T17:59:10.860Z,6.78
2024-04-30T18:01:40.220Z,5.25
2024-04-30T18:04:06.970Z,6.00
2024-04-30T18:06:38.828Z,9.10
2024-04-30T18:09:06.773Z,8.40
2024-04-30T18:11:36.673Z,4.85
2024-04-30T18:14:03.638Z,6.78
2024-04-30T18:16:33.140Z,13.60
2024-04-30T18:18:59.934Z,11.07
2024-04-30T18:21:35.111Z,14.95
2024-04-30T18:24:07.140Z,11.70
2024-04-30T18:26:41.526Z,9.10
2024-04-30T18:29:08.761Z,8.25
2024-04-30T18:31:38.321Z,28.67
2024-04-30T18:34:05.097Z,8.20
2024-04-30T18:36:39.572Z,11.02
2024-04-30T18:39:13.763Z,7.20
2024-04-30T18:41:43.140Z,9.95
2024-04-30T18:44:10.059Z,21.98
2024-04-30T18:46:39.317Z,18.08
2024-04-30T18:49:06.100Z,13.82
2024-04-30T18:51:41.750Z,6.47
2024-04-30T18:54:13.911Z,14.93
2024-04-30T18:56:40.534Z,6.32
2024-04-30T18:59:09.838Z,4.88
2024-04-30T19:01:36.852Z,13.00
2024-04-30T19:04:06.623Z,30.35
2024-04-30T19:06:33.401Z,23.38
2024-04-30T19:09:02.768Z,22.23
2024-04-30T19:11:34.614Z,28.13
2024-04-30T19:14:01.308Z,7.20
2024-04-30T19:16:30.562Z,12.80
2024-04-30T19:18:58.052Z,10.63
2024-04-30T19:21:27.320Z,6.03
2024-04-30T19:23:53.962Z,11.02
2024-04-30T19:26:23.130Z,19.42
2024-04-30T19:28:52.444Z,25.38
2024-04-30T19:31:23.208Z,7.82
2024-04-30T19:33:50.135Z,19.70
2024-04-30T19:36:20.847Z,11.93
2024-04-30T19:38:48.313Z,9.55
2024-04-30T19:41:18.154Z,21.60
2024-04-30T19:43:45.070Z,16.08
2024-04-30T19:46:20.925Z,13.35
2024-04-30T19:48:48.043Z,22.77
2024-04-30T19:51:20.998Z,55.20
2024-04-30T19:53:49.580Z,79.90
2024-04-30T19:56:20.312Z,68.95
2024-04-30T19:58:51.664Z,29.05
2024-04-30T20:01:28.950Z,79.15
2024-04-30T20:03:57.685Z,63.88
2024-04-30T20:06:27.551Z,42.97
2024-04-30T20:08:54.332Z,36.47
2024-04-30T20:11:26.018Z,39.33
2024-04-30T20:13:53.571Z,9.60
2024-04-30T20:16:26.977Z,7.82
2024-04-30T20:18:54.092Z,10.73
2024-04-30T20:21:25.393Z,6.38
2024-04-30T20:23:52.273Z,10.98
2024-04-30T20:26:21.488Z,13.95
2024-04-30T20:28:48.513Z,11.60
2024-04-30T20:31:17.985Z,11.32
2024-04-30T20:33:47.297Z,8.15
2024-04-30T20:36:19.856Z,10.75
2024-04-30T20:38:46.794Z,29.27
2024-04-30T20:41:17.123Z,33.08
2024-04-30T20:43:43.905Z,23.35
2024-04-30T20:46:13.204Z,20.48
2024-04-30T20:48:39.991Z,10.52
2024-04-30T20:51:11.884Z,6.68
2024-04-30T20:53:40.245Z,5.65
2024-04-30T20:56:10.406Z,5.60
2024-04-30T20:58:37.036Z,14.57
2024-04-30T21:01:06.548Z,54.92
2024-04-30T21:03:33.334Z,10.23
2024-04-30T21:06:03.142Z,22.10
2024-04-30T21:08:32.419Z,20.73
2024-04-30T21:11:01.782Z,6.70
2024-04-30T21:13:28.465Z,9.02
2024-04-30T21:15:57.840Z,13.45
2024-04-30T21:18:24.727Z,38.08
2024-04-30T21:20:53.999Z,15.35
2024-04-30T21:23:21.540Z,7.80
2024-04-30T21:25:53.346Z,13.20
2024-04-30T21:28:20.008Z,24.95
2024-04-30T21:30:51.639Z,36.92
2024-04-30T21:33:18.850Z,34.42
2024-04-30T21:35:48.626Z,38.72
2024-04-30T21:38:16.598Z,11.15
2024-04-30T21:40:45.966Z,13.77
2024-04-30T21:43:15.231Z,8.50
2024-04-30T21:45:44.503Z,8.13
2024-04-30T21:48:11.384Z,10.10
2024-04-30T21:50:40.634Z,14.80
2024-04-30T21:53:07.412Z,44.75
2024-04-30T21:55:36.659Z,45.85
2024-04-30T21:58:03.538Z,36.22
2024-04-30T22:00:35.637Z,32.38
2024-04-30T22:03:03.551Z,30.35
2024-04-30T22:05:33.924Z,52.83
2024-04-30T22:08:00.693Z,9.18
2024-04-30T22:10:29.897Z,5.97
2024-04-30T22:12:56.780Z,8.43
2024-04-30T22:15:26.162Z,7.60
2024-04-30T22:17:55.494Z,17.15
2024-04-30T22:20:24.805Z,17.08
2024-04-30T22:22:51.494Z,59.05
2024-04-30T22:25:20.738Z,6.90
2024-04-30T22:27:47.419Z,7.05
2024-04-30T22:30:20.065Z,18.17
2024-04-30T22:32:47.378Z,45.15
2024-04-30T22:35:19.394Z,51.05
2024-04-30T22:37:46.027Z,7.90
2024-04-30T22:40:15.414Z,9.10
2024-04-30T22:42:42.227Z,13.32
2024-04-30T22:45:11.507Z,28.58
2024-04-30T22:47:38.334Z,17.80
2024-04-30T22:50:07.865Z,17.15
2024-04-30T22:52:37.103Z,11.90
2024-04-30T22:55:06.896Z,10.52
2024-04-30T22:57:36.235Z,15.98
2024-04-30T23:00:03.963Z,9.02
2024-04-30T23:02:33.224Z,11.65
2024-04-30T23:05:00.212Z,41.30
2024-04-30T23:07:29.503Z,48.30
2024-04-30T23:09:58.711Z,26.52
2024-04-30T23:12:28.097Z,14.73
2024-04-30T23:14:54.948Z,23.73
2024-04-30T23:17:24.245Z,9.57
2024-04-30T23:19:50.956Z,32.95
2024-04-30T23:22:23.402Z,44.05
2024-04-30T23:24:50.077Z,7.75
2024-04-30T23:27:22.222Z,12.65
2024-04-30T23:29:48.954Z,45.92
2024-04-30T23:32:18.351Z,15.45
2024-04-30T23:34:44.977Z,26.42
2024-04-30T23:37:14.202Z,16.90
2024-04-30T23:39:40.923Z,19.10
2024-04-30T23:42:13.761Z,25.45
2024-04-30T23:44:46.221Z,38.15
2024-04-30T23:47:15.448Z,53.42
2024-04-30T23:49:42.233Z,133.10
2024-04-30T23:52:11.491Z,23.95
2024-04-30T23:54:38.322Z,22.15
2024-04-30T23:57:08.210Z,19.52
2024-04-30T23:59:34.897Z,8.65
